sensor_id;sensor_type;location;lat;lon;timestamp;pressure;altitude;pressure_sealevel;temperature;humidity
38558;BME280;24333;42.626;23.308;2023-04-26T03:55:16;69848.50;;;-148.95;100.00
38558;BME280;24333;42.626;23.308;2023-04-26T04:04:13;69850.56;;;-148.95;100.00
38558;BME280;24333;42.626;23.308;2023-04-26T04:11:22;69842.28;;;-148.95;100.00
38558;BME280;24333;42.626;23.308;2023-04-26T05:26:37;69771.75;;;-148.95;100.00
38558;BME280;24333;42.626;23.308;2023-04-26T06:37:52;69553.94;;;-148.95;85.63
38558;BME280;24333;42.626;23.308;2023-04-26T07:58:28;69539.44;;;-148.95;58.71
38558;BME280;24333;42.626;23.308;2023-04-26T08:00:54;69549.78;;;-148.95;61.06
38558;BME280;24333;42.626;23.308;2023-04-26T08:03:20;69576.75;;;-148.95;60.67
38558;BME280;24333;42.626;23.308;2023-04-26T08:05:46;69562.25;;;-148.95;63.88
38558;BME280;24333;42.626;23.308;2023-04-26T08:08:12;69535.28;;;-148.95;64.20
38558;BME280;24333;42.626;23.308;2023-04-26T08:10:39;69558.09;;;-148.95;60.76
38558;BME280;24333;42.626;23.308;2023-04-26T08:13:05;69558.09;;;-148.95;63.00
38558;BME280;24333;42.626;23.308;2023-04-26T08:15:32;69551.88;;;-148.95;63.04
38558;BME280;24333;42.626;23.308;2023-04-26T08:17:58;69558.09;;;-148.95;61.19
38558;BME280;24333;42.626;23.308;2023-04-26T08:20:26;69549.78;;;-148.95;62.45
38558;BME280;24333;42.626;23.308;2023-04-26T08:23:23;69537.34;;;-148.95;60.91
38558;BME280;24333;42.626;23.308;2023-04-26T08:26:02;69547.72;;;-148.95;57.58
38558;BME280;24333;42.626;23.308;2023-04-26T08:28:30;69533.19;;;-148.95;58.69
38558;BME280;24333;42.626;23.308;2023-04-26T08:31:08;69512.47;;;-148.95;57.80
38558;BME280;24333;42.626;23.308;2023-04-26T08:33:39;69533.19;;;-148.95;58.62
38558;BME280;24333;42.626;23.308;2023-04-26T08:36:42;69512.47;;;-148.95;60.72
38558;BME280;24333;42.626;23.308;2023-04-26T11:24:42;69195.13;;;-148.95;40.69
38558;BME280;24333;42.626;23.308;2023-04-26T11:27:08;69224.16;;;-148.95;39.95
38558;BME280;24333;42.626;23.308;2023-04-26T11:29:34;69257.34;;;-148.95;39.95
38558;BME280;24333;42.626;23.308;2023-04-26T11:32:00;69257.34;;;-148.95;39.15
38558;BME280;24333;42.626;23.308;2023-04-26T11:34:36;69240.75;;;-148.95;39.25
38558;BME280;24333;42.626;23.308;2023-04-26T11:37:04;69238.69;;;-148.95;39.35
38558;BME280;24333;42.626;23.308;2023-04-26T11:40:00;69215.84;;;-148.95;38.53
38558;BME280;24333;42.626;23.308;2023-04-26T11:42:25;69195.13;;;-148.95;38.17
38558;BME280;24333;42.626;23.308;2023-04-26T11:44:52;69201.34;;;-148.95;38.79
38558;BME280;24333;42.626;23.308;2023-04-26T11:47:18;69232.44;;;-148.95;38.95
38558;BME280;24333;42.626;23.308;2023-04-26T11:49:53;69238.69;;;-148.95;39.50
38558;BME280;24333;42.626;23.308;2023-04-26T11:52:34;69271.84;;;-148.95;39.46
38558;BME280;24333;42.626;23.308;2023-04-26T12:28:14;69166.09;;;-148.95;37.77
38558;BME280;24333;42.626;23.308;2023-04-26T12:30:45;69143.28;;;-148.95;38.56
38558;BME280;24333;42.626;23.308;2023-04-26T12:33:14;69164.00;;;-148.95;37.78
38558;BME280;24333;42.626;23.308;2023-04-26T12:35:40;69199.28;;;-148.95;37.52
38558;BME280;24333;42.626;23.308;2023-04-26T12:38:07;69180.59;;;-148.95;37.68
38558;BME280;24333;42.626;23.308;2023-04-26T13:01:14;69276.00;;;-148.95;40.05
38558;BME280;24333;42.626;23.308;2023-04-26T13:03:40;69329.94;;;-148.95;39.65
38558;BME280;24333;42.626;23.308;2023-04-26T13:06:05;69325.78;;;-148.95;40.45
38558;BME280;24333;42.626;23.308;2023-04-26T13:11:07;69338.22;;;-148.95;40.96
38558;BME280;24333;42.626;23.308;2023-04-26T13:13:33;69363.13;;;-148.95;40.77
38558;BME280;24333;42.626;23.308;2023-04-26T13:15:59;69373.50;;;-148.95;41.79
38558;BME280;24333;42.626;23.308;2023-04-26T13:32:22;69452.31;;;-148.95;42.04
38558;BME280;24333;42.626;23.308;2023-04-26T13:48:48;69518.69;;;-148.95;43.17
38558;BME280;24333;42.626;23.308;2023-04-26T14:29:26;69614.09;;;-148.95;47.20
38558;BME280;24333;42.626;23.308;2023-04-26T14:31:52;69620.31;;;-148.95;46.80
38558;BME280;24333;42.626;23.308;2023-04-26T14:34:17;69661.81;;;-148.95;48.12
38558;BME280;24333;42.626;23.308;2023-04-26T14:36:42;69680.47;;;-148.95;49.48
38558;BME280;24333;42.626;23.308;2023-04-26T14:39:08;69680.47;;;-148.95;50.79
38558;BME280;24333;42.626;23.308;2023-04-26T14:41:33;69678.41;;;-148.95;50.58
38558;BME280;24333;42.626;23.308;2023-04-26T16:14:08;69885.84;;;-148.95;66.55
38558;BME280;24333;42.626;23.308;2023-04-26T16:16:34;69879.63;;;-148.95;67.19
38558;BME280;24333;42.626;23.308;2023-04-26T16:18:59;69869.25;;;-148.95;67.04
38558;BME280;24333;42.626;23.308;2023-04-26T16:21:25;69883.75;;;-148.95;65.70
38558;BME280;24333;42.626;23.308;2023-04-26T16:23:51;69902.44;;;-148.95;65.23
38558;BME280;24333;42.626;23.308;2023-04-26T16:26:22;69906.59;;;-148.95;66.21
38558;BME280;24333;42.626;23.308;2023-04-26T16:32:37;69927.31;;;-148.95;66.76
38558;BME280;24333;42.626;23.308;2023-04-26T16:35:03;69931.47;;;-148.95;66.98
38558;BME280;24333;42.626;23.308;2023-04-26T16:37:44;69943.94;;;-148.95;66.21
38558;BME280;24333;42.626;23.308;2023-04-26T16:40:10;69939.78;;;-148.95;66.58
38558;BME280;24333;42.626;23.308;2023-04-26T16:42:38;69937.69;;;-148.95;68.63
38558;BME280;24333;42.626;23.308;2023-04-26T16:45:12;69937.69;;;-148.95;68.92
38558;BME280;24333;42.626;23.308;2023-04-26T16:47:37;69943.94;;;-148.95;68.42
38558;BME280;24333;42.626;23.308;2023-04-26T16:50:03;69950.16;;;-148.95;67.66
38558;BME280;24333;42.626;23.308;2023-04-26T16:52:29;69952.22;;;-148.95;66.77
38558;BME280;24333;42.626;23.308;2023-04-26T16:54:55;69950.16;;;-148.95;66.97
38558;BME280;24333;42.626;23.308;2023-04-26T16:57:20;69948.06;;;-148.95;67.60
38558;BME280;24333;42.626;23.308;2023-04-26T16:59:45;69968.81;;;-148.95;67.06
38558;BME280;24333;42.626;23.308;2023-04-26T17:02:12;69972.97;;;-148.95;68.28
38558;BME280;24333;42.626;23.308;2023-04-26T17:04:40;69983.34;;;-148.95;66.88
38558;BME280;24333;42.626;23.308;2023-04-26T17:07:06;69989.56;;;-148.95;67.36
38558;BME280;24333;42.626;23.308;2023-04-26T17:09:32;69999.94;;;-148.95;67.61
38558;BME280;24333;42.626;23.308;2023-04-26T17:11:57;70008.22;;;-148.95;67.88
38558;BME280;24333;42.626;23.308;2023-04-26T17:14:23;70012.38;;;-148.95;67.18
38558;BME280;24333;42.626;23.308;2023-04-26T17:16:48;70012.38;;;-148.95;68.93
38558;BME280;24333;42.626;23.308;2023-04-26T17:19:14;70026.91;;;-148.95;67.41
38558;BME280;24333;42.626;23.308;2023-04-26T17:21:39;70018.59;;;-148.95;67.89
38558;BME280;24333;42.626;23.308;2023-04-26T17:24:05;70026.91;;;-148.95;68.28
38558;BME280;24333;42.626;23.308;2023-04-26T17:26:31;70033.13;;;-148.95;68.81
38558;BME280;24333;42.626;23.308;2023-04-26T17:28:57;70035.19;;;-148.95;69.01
38558;BME280;24333;42.626;23.308;2023-04-26T17:31:22;70037.28;;;-148.95;70.38
38558;BME280;24333;42.626;23.308;2023-04-26T17:33:50;70047.66;;;-148.95;69.57
38558;BME280;24333;42.626;23.308;2023-04-26T17:36:16;70045.56;;;-148.95;69.14
38558;BME280;24333;42.626;23.308;2023-04-26T17:38:42;70045.56;;;-148.95;69.50
38558;BME280;24333;42.626;23.308;2023-04-26T17:52:30;70058.03;;;-148.95;70.91
38558;BME280;24333;42.626;23.308;2023-04-26T17:54:56;70066.31;;;-148.95;71.22
38558;BME280;24333;42.626;23.308;2023-04-26T18:01:08;70078.78;;;-148.95;70.13
38558;BME280;24333;42.626;23.308;2023-04-26T18:03:33;70078.78;;;-148.95;71.03
38558;BME280;24333;42.626;23.308;2023-04-26T18:06:00;70089.16;;;-148.95;70.35
38558;BME280;24333;42.626;23.308;2023-04-26T18:11:00;70089.16;;;-148.95;69.88
38558;BME280;24333;42.626;23.308;2023-04-26T18:13:26;70099.50;;;-148.95;69.65
38558;BME280;24333;42.626;23.308;2023-04-26T18:59:52;70132.72;;;-148.95;67.75
38558;BME280;24333;42.626;23.308;2023-04-26T19:02:25;70138.94;;;-148.95;67.45
38558;BME280;24333;42.626;23.308;2023-04-26T19:04:56;70141.00;;;-148.95;67.46
38558;BME280;24333;42.626;23.308;2023-04-26T19:39:55;70170.06;;;-148.95;65.31
38558;BME280;24333;42.626;23.308;2023-04-26T19:42:20;70172.13;;;-148.95;66.03
38558;BME280;24333;42.626;23.308;2023-04-26T19:44:46;70182.50;;;-148.95;65.34
38558;BME280;24333;42.626;23.308;2023-04-26T19:47:13;70176.28;;;-148.95;65.86
38558;BME280;24333;42.626;23.308;2023-04-26T19:49:39;70184.56;;;-148.95;64.69
38558;BME280;24333;42.626;23.308;2023-04-26T19:55:42;70188.72;;;-148.95;65.31
38558;BME280;24333;42.626;23.308;2023-04-26T19:58:10;70192.88;;;-148.95;66.13
38558;BME280;24333;42.626;23.308;2023-04-26T20:00:36;70197.03;;;-148.95;66.00
38558;BME280;24333;42.626;23.308;2023-04-26T20:03:03;70194.94;;;-148.95;66.20
38558;BME280;24333;42.626;23.308;2023-04-26T20:05:29;70188.72;;;-148.95;66.71
38558;BME280;24333;42.626;23.308;2023-04-26T20:08:00;70209.47;;;-148.95;66.24
38558;BME280;24333;42.626;23.308;2023-04-26T20:46:07;70259.25;;;-148.95;71.00
38558;BME280;24333;42.626;23.308;2023-04-26T20:48:33;70263.41;;;-148.95;69.52
38558;BME280;24333;42.626;23.308;2023-04-26T20:50:58;70271.72;;;-148.95;68.53
38558;BME280;24333;42.626;23.308;2023-04-26T20:53:24;70267.56;;;-148.95;69.46
38558;BME280;24333;42.626;23.308;2023-04-26T20:56:19;70277.94;;;-148.95;69.32
38558;BME280;24333;42.626;23.308;2023-04-26T20:59:27;70273.78;;;-148.95;69.87
38558;BME280;24333;42.626;23.308;2023-04-26T21:01:53;70280.00;;;-148.95;68.03
38558;BME280;24333;42.626;23.308;2023-04-26T21:04:19;70288.31;;;-148.95;67.03
38558;BME280;24333;42.626;23.308;2023-04-26T21:06:44;70284.16;;;-148.95;67.58
38558;BME280;24333;42.626;23.308;2023-04-26T21:09:10;70280.00;;;-148.95;67.79
38558;BME280;24333;42.626;23.308;2023-04-26T21:11:35;70280.00;;;-148.95;66.14
38558;BME280;24333;42.626;23.308;2023-04-26T21:14:01;70280.00;;;-148.95;65.62
38558;BME280;24333;42.626;23.308;2023-04-26T21:16:26;70296.59;;;-148.95;65.41
38558;BME280;24333;42.626;23.308;2023-04-26T21:18:51;70292.47;;;-148.95;64.57
38558;BME280;24333;42.626;23.308;2023-04-26T21:21:17;70290.38;;;-148.95;64.39
38558;BME280;24333;42.626;23.308;2023-04-26T21:23:43;70300.75;;;-148.95;64.57
38558;BME280;24333;42.626;23.308;2023-04-26T21:26:08;70309.06;;;-148.95;63.39
38558;BME280;24333;42.626;23.308;2023-04-26T21:28:34;70309.06;;;-148.95;63.25
38558;BME280;24333;42.626;23.308;2023-04-26T21:31:17;70313.19;;;-148.95;63.80
38558;BME280;24333;42.626;23.308;2023-04-26T21:33:49;70317.34;;;-148.95;64.49
38558;BME280;24333;42.626;23.308;2023-04-26T21:36:14;70331.88;;;-148.95;64.01
38558;BME280;24333;42.626;23.308;2023-04-26T21:38:41;70340.19;;;-148.95;63.14
38558;BME280;24333;42.626;23.308;2023-04-26T21:41:28;70348.47;;;-148.95;64.89
38558;BME280;24333;42.626;23.308;2023-04-26T21:44:15;70338.09;;;-148.95;66.22
38558;BME280;24333;42.626;23.308;2023-04-26T21:46:40;70360.91;;;-148.95;65.63
38558;BME280;24333;42.626;23.308;2023-04-26T21:49:06;70371.28;;;-148.95;66.87
38558;BME280;24333;42.626;23.308;2023-04-26T21:51:31;70379.59;;;-148.95;68.42
38558;BME280;24333;42.626;23.308;2023-04-26T21:53:57;70396.19;;;-148.95;67.24
38558;BME280;24333;42.626;23.308;2023-04-26T21:56:23;70398.28;;;-148.95;68.82
38558;BME280;24333;42.626;23.308;2023-04-26T21:59:12;70404.50;;;-148.95;66.85
38558;BME280;24333;42.626;23.308;2023-04-26T22:01:40;70398.28;;;-148.95;68.31
38558;BME280;24333;42.626;23.308;2023-04-26T22:04:05;70408.63;;;-148.95;68.99
38558;BME280;24333;42.626;23.308;2023-04-26T22:06:31;70412.78;;;-148.95;65.41
38558;BME280;24333;42.626;23.308;2023-04-26T22:08:59;70414.88;;;-148.95;65.41
38558;BME280;24333;42.626;23.308;2023-04-26T22:12:04;70406.56;;;-148.95;65.22
38558;BME280;24333;42.626;23.308;2023-04-26T22:17:52;70412.78;;;-148.95;62.52
38558;BME280;24333;42.626;23.308;2023-04-26T22:20:17;70412.78;;;-148.95;62.98
38558;BME280;24333;42.626;23.308;2023-04-26T22:22:43;70408.63;;;-148.95;62.68
38558;BME280;24333;42.626;23.308;2023-04-26T22:25:09;70410.72;;;-148.95;61.46
38558;BME280;24333;42.626;23.308;2023-04-26T22:27:34;70414.88;;;-148.95;61.78
